Gällivare Airport

ESNG · Norrbotten, Sweden

METAR history ESNG · Gällivare Airport

Below you see METARs of the last few days. Select a year to browse through older METARs, from the year 2007 onwards.

April 2, 2023

Time Code Weather Temp. Visibility Ceiling Wind METAR/SPECI
08:20
V
0 °C 10 km+ - 260° 260° 5 kt METAR ESNG 020620Z AUTO 26005KT 9999 NCD ///// Q1030
07:50
V
0 °C 10 km+ - 350° 350° 2 kt METAR ESNG 020550Z AUTO 35002KT 9999 NCD ///// Q1030
07:20
V
0 °C 10 km+ - 320° 320° 6 kt METAR ESNG 020520Z AUTO 32006KT 9999 NCD ///// Q1029
06:50
V
0 °C 10 km+ - 320° 320° 7 kt METAR ESNG 020450Z AUTO 32007KT 9999 NCD ///// Q1029
06:20
V
0 °C 10 km+ - 320° 320° 7 kt METAR ESNG 020420Z AUTO 32007KT 9999 NCD ///// Q1028
05:50
V
0 °C 10 km+ - 330° 330° 7 kt METAR ESNG 020350Z AUTO 33007KT 9999 FEW037/// ///// Q1028
05:20
V
0 °C 10 km+ - 300° 300° 8 kt METAR ESNG 020320Z AUTO 30008KT 9999 NCD ///// Q1027
04:50
V
0 °C 10 km+ - 310° 310° 9 kt METAR ESNG 020250Z AUTO 31009KT 9999 NCD ///// Q1027
04:20
V
0 °C 10 km+ - 320° 320° 8 kt METAR ESNG 020220Z AUTO 32008KT 9999 NCD ///// Q1027
03:50
V
0 °C 10 km+ - 310° 310° 8 kt METAR ESNG 020150Z AUTO 31008KT 9999 NCD ///// Q1026
03:20
V
0 °C 10 km+ - 310° 310° 7 kt METAR ESNG 020120Z AUTO 31007KT 9999 NCD ///// Q1026
02:50
V
0 °C 10 km+ - 340° 340° 6 kt METAR ESNG 020050Z AUTO 34006KT 9999 FEW059/// ///// Q1025
02:20
V
0 °C 10 km+ 5,500 ft 310° 310° 7 kt METAR ESNG 020020Z AUTO 31007KT 9999 OVC055/// ///// Q1025
01:50
V
0 °C 10 km+ 5,500 ft 300° 300° 7 kt METAR ESNG 012350Z AUTO 30007KT 9999 OVC055/// ///// Q1025
01:20
V
0 °C 10 km+ 5,500 ft 290° 290° 7 kt METAR ESNG 012320Z AUTO 29007KT 9999 BKN055/// ///// Q1024
00:50
V
0 °C 10 km+ 5,500 ft 300° 300° 6 kt METAR ESNG 012250Z AUTO 30006KT 9999 BKN055/// ///// Q1024
00:20
V
0 °C 10 km+ - 300° 300° 7 kt METAR ESNG 012220Z AUTO 30007KT 9999 FEW055/// ///// Q1023

April 1, 2023

Time Code Weather Temp. Visibility Ceiling Wind METAR/SPECI
23:50
V
0 °C 10 km+ - 310° 310° 8 kt METAR ESNG 012150Z AUTO 31008KT 9999 SCT057/// ///// Q1023
23:20
V
0 °C 10 km+ - 300° 300° 6 kt METAR ESNG 012120Z AUTO 30006KT 9999 FEW059/// ///// Q1022
22:50
V
0 °C 10 km+ - 310° 310° 6 kt METAR ESNG 012050Z AUTO 31006KT 9999 FEW059/// ///// Q1022
22:20
V
0 °C 10 km+ - 320° 320° 7 kt METAR ESNG 012020Z AUTO 32007KT 9999 FEW057/// ///// Q1021
21:50
V
0 °C 10 km+ - 330° 330° 7 kt METAR ESNG 011950Z AUTO 33007KT 9999 NCD ///// Q1021
21:20
V
0 °C 10 km+ - 330° 330° 7 kt METAR ESNG 011920Z AUTO 33007KT 9999 NCD ///// Q1020
20:50
V
0 °C 10 km+ - 340° 340° 9 kt METAR ESNG 011850Z AUTO 34009KT 9999 NCD ///// Q1020
20:20
V
0 °C 10 km+ - 350° 350° 8 kt METAR ESNG 011820Z AUTO 35008KT 9999 NCD ///// Q1019
19:50
V
0 °C 10 km+ - 340° 340° 9 kt METAR ESNG 011750Z AUTO 34009KT 9999 NCD ///// Q1018
19:20
V
0 °C 10 km+ - 350° 350° 8 kt METAR ESNG 011720Z AUTO 35008KT 9999 NCD ///// Q1018
18:50
V
0 °C 10 km+ - 360° 360° 8 kt METAR ESNG 011650Z AUTO 36008KT 320V030 9999 NCD ///// Q1017 RESHUP
18:20
M
0 °C 5 km 3,700 ft 340° 340° 5 kt METAR ESNG 011620Z AUTO 34005KT 5000 UP FEW003/// BKN037/// ///// Q1017 RESHUP REUP
17:50
V
0 °C 10 km+ 4,500 ft 310° 310° 12 kt METAR ESNG 011550Z AUTO 31012KT 9999 BKN045/// OVC057/// ///// Q1016
17:20
V
0 °C 10 km+ 4,900 ft 010° 010° 9 kt METAR ESNG 011520Z AUTO 01009KT 320V040 9999 BKN049/// ///// Q1016
16:50
V
0 °C 10 km+ - 360° 360° 7 kt METAR ESNG 011450Z AUTO 36007KT 9999 FEW048/// ///// Q1015
16:20
V
0 °C 10 km+ - 350° 350° 7 kt METAR ESNG 011420Z AUTO 35007KT 9999 SCT049/// ///// Q1015 RESHUP
15:50
V
0 °C 10 km+ - 350° 350° 10 kt METAR ESNG 011350Z AUTO 35010KT 9999 SCT049/// ///// Q1014 REUP
15:20
V
0 °C 10 km+ - 350° 350° 6 kt METAR ESNG 011320Z AUTO 35006KT 310V060 9999 FEW013/// SCT059/// ///// Q1014 RESHUP REUP
14:50
V
0 °C 10 km+ - 350° 350° 12 kt METAR ESNG 011250Z AUTO 35012KT 9999 -SN SCT049/// ///// Q1013
14:20
V
0 °C 10 km+ 4,900 ft 340° 340° 10 kt METAR ESNG 011220Z AUTO 34010KT 9999 BKN049/// OVC064/// ///// Q1013
13:50
V
0 °C 10 km+ 5,100 ft 330° 330° 10 kt METAR ESNG 011150Z AUTO 33010KT 290V360 9999 BKN051/// ///// Q1012
13:20
V
0 °C 10 km+ 4,900 ft 310° 310° 10 kt METAR ESNG 011120Z AUTO 31010KT 9999 BKN049/// ///// Q1012
12:50
V
0 °C 10 km+ - 310° 310° 10 kt METAR ESNG 011050Z AUTO 31010KT 9999 FEW042/// ///// Q1012 RESHUP
12:20
V
0 °C 9 km 4,200 ft 330° 330° 18 kt METAR ESNG 011020Z AUTO 33018KT 9000 BR FEW010/// BKN042/// ///// Q1011 RESN
11:50
V
0 °C 9 km 4,200 ft 310° 310° 9 kt METAR ESNG 010950Z AUTO 31009KT 9000 -SN FEW031/// BKN042/// ///// Q1011 RESHUP RESN
11:20
V
-2 °C 10 km+ 3,400 ft 290° 290° 7 kt METAR ESNG 010920Z AUTO 29007KT 9999 FEW009/// SCT016/// BKN034/// M02/M05 Q1010
10:50
M
-2 °C 7 km 3,200 ft 300° 300° 10 kt METAR ESNG 010850Z AUTO 30010KT 7000 -SN FEW022/// OVC032/// M02/M04 Q1010 REFZUP RESHUP
10:20
V
-2 °C 10 km+ 3,800 ft 310° 310° 12 kt METAR ESNG 010820Z AUTO 31012KT 9999 FZUP BKN038/// M02/M06 Q1010
09:50
V
-3 °C 10 km+ - 300° 300° 7 kt METAR ESNG 010750Z AUTO 30007KT 9999 FEW061/// M03/M10 Q1010
09:20
V
0 °C 10 km+ - 290° 290° 8 kt METAR ESNG 010720Z AUTO 29008KT 9999 FEW057/// SCT070/// ///// Q1010
08:50
V
0 °C 10 km+ - 310° 310° 5 kt METAR ESNG 010650Z AUTO 31005KT 9999 SCT100/// ///// Q1010
08:20
V
0 °C 10 km+ - 320° 320° 6 kt METAR ESNG 010620Z AUTO 32006KT 9999 NCD ///// Q1010
07:50
V
0 °C 10 km+ - 330° 330° 7 kt METAR ESNG 010550Z AUTO 33007KT 9999 NCD ///// Q1010
07:20
V
0 °C 10 km+ - 330° 330° 8 kt METAR ESNG 010520Z AUTO 33008KT 9999 FEW100/// ///// Q1010
06:50
V
0 °C 10 km+ - 320° 320° 8 kt METAR ESNG 010450Z AUTO 32008KT 9999 NCD ///// Q1010
06:20
V
0 °C 10 km+ - 300° 300° 10 kt METAR ESNG 010420Z AUTO 30010KT 9999 NCD ///// Q1010
05:50
V
0 °C 10 km+ - 310° 310° 8 kt METAR ESNG 010350Z AUTO 31008KT 9999 NCD ///// Q1010
05:20
V
0 °C 10 km+ - 330° 330° 7 kt METAR ESNG 010320Z AUTO 33007KT 9999 NCD ///// Q1010
04:50
V
0 °C 10 km+ - 320° 320° 5 kt METAR ESNG 010250Z AUTO 32005KT 9999 NCD ///// Q1010
04:20
V
0 °C 10 km+ - 300° 300° 7 kt METAR ESNG 010220Z AUTO 30007KT 9999 NCD ///// Q1010
03:50
V
0 °C 10 km+ - 300° 300° 12 kt METAR ESNG 010150Z AUTO 30012KT 9999 NCD ///// Q1009
03:20
V
0 °C 10 km+ - 300° 300° 10 kt METAR ESNG 010120Z AUTO 30010KT 9999 NCD ///// Q1009
02:50
V
0 °C 10 km+ - 290° 290° 10 kt METAR ESNG 010050Z AUTO 29010KT 9999 NCD ///// Q1009
02:20
V
0 °C 10 km+ - 300° 300° 7 kt METAR ESNG 010020Z AUTO 30007KT 9999 NCD ///// Q1010
01:50
V
0 °C 10 km+ - 290° 290° 5 kt METAR ESNG 312350Z AUTO 29005KT 9999 NCD ///// Q1009
01:20
V
0 °C 10 km+ - 320° 320° 7 kt METAR ESNG 312320Z AUTO 32007KT 9999 NCD ///// Q1009
00:50
V
0 °C 10 km+ - 320° 320° 8 kt METAR ESNG 312250Z AUTO 32008KT 9999 NCD ///// Q1009
00:20
V
0 °C 10 km+ - 330° 330° 9 kt METAR ESNG 312220Z AUTO 33009KT 9999 NCD ///// Q1009

March 31, 2023

Time Code Weather Temp. Visibility Ceiling Wind METAR/SPECI
23:50
V
0 °C 10 km+ - 330° 330° 11 kt METAR ESNG 312150Z AUTO 33011KT 9999 NCD ///// Q1009
23:20
V
0 °C 10 km+ - 300° 300° 8 kt METAR ESNG 312120Z AUTO 30008KT 9999 NCD ///// Q1009
22:50
V
0 °C 10 km+ - 310° 310° 10 kt METAR ESNG 312050Z AUTO 31010KT 9999 NCD ///// Q1008
22:20
V
0 °C 10 km+ - 310° 310° 10 kt METAR ESNG 312020Z AUTO 31010KT 9999 NCD ///// Q1008
21:50
V
-4 °C 10 km+ - 320° 320° 14 kt METAR ESNG 311950Z 32014KT CAVOK M04/M11 Q1008
21:20
V
-3 °C 10 km+ - 320° 320° 12 kt METAR ESNG 311920Z 32012KT CAVOK M03/M10 Q1007
20:50
V
-3 °C 10 km+ - 310° 310° 12 kt METAR ESNG 311850Z 31012KT CAVOK M03/M10 Q1007
20:20
V
-3 °C 10 km+ - 320° 320° 15 kt METAR ESNG 311820Z 32015KT CAVOK M03/M10 Q1006
19:50
V
-2 °C 10 km+ - 320° 320° 15 kt METAR ESNG 311750Z 32015KT CAVOK M02/M10 Q1006
19:20
V
-2 °C 10 km+ - 320° 320° 18 kt METAR ESNG 311720Z 32018KT CAVOK M02/M09 Q1005
18:50
V
-1 °C 10 km+ - 330° 330° 18 kt METAR ESNG 311650Z 33018KT CAVOK M01/M09 Q1005
18:20
V
-1 °C 10 km+ - 320° 320° 17 - 28 kt METAR ESNG 311620Z 32017G28KT CAVOK M01/M08 Q1004
17:50
V
-1 °C 10 km+ - 330° 330° 16 kt METAR ESNG 311550Z 33016KT CAVOK M01/M08 Q1004
17:20
V
0 °C 10 km+ - 320° 320° 21 kt METAR ESNG 311520Z 32021KT CAVOK M00/M08 Q1003
16:50
V
0 °C 10 km+ - 320° 320° 21 - 31 kt METAR ESNG 311450Z 32021G31KT CAVOK M00/M08 Q1003
16:20
V
0 °C 10 km+ - 310° 310° 22 kt METAR ESNG 311420Z 31022KT CAVOK M00/M08 Q1002
15:50
V
0 °C 10 km+ - 320° 320° 20 kt METAR ESNG 311350Z 32020KT CAVOK M00/M08 Q1002
15:20
V
0 °C 10 km+ - 320° 320° 21 kt METAR ESNG 311320Z 32021KT CAVOK 00/M08 Q1001
14:50
V
0 °C 10 km+ - 320° 320° 20 kt METAR ESNG 311250Z 32020KT CAVOK M00/M08 Q1001
13:50
V
0 °C 10 km+ - 320° 320° 26 kt METAR ESNG 311150Z AUTO 32026KT 9999 NCD 00/M08 Q1000 RESHUP
13:20
M
1 °C 7 km - 320° 320° 20 kt METAR ESNG 311120Z AUTO 32020KT 7000 BR NCD 01/M08 Q0999 REUP
12:50
V
1 °C 10 km+ - 310° 310° 23 kt METAR ESNG 311050Z AUTO 31023KT 9999 FEW210/// 01/M07 Q0999
12:20
V
1 °C 10 km+ - 310° 310° 24 - 36 kt METAR ESNG 311020Z AUTO 31024G36KT 9999 FEW210/// 01/M07 Q0998
11:50
V
1 °C 10 km+ - 320° 320° 25 kt METAR ESNG 310950Z 32025KT CAVOK 01/M07 Q0998
11:20
V
1 °C 10 km+ - 320° 320° 24 - 36 kt METAR ESNG 310920Z 32024G36KT CAVOK 01/M07 Q0997
10:50
V
1 °C 10 km+ - 310° 310° 20 kt METAR ESNG 310850Z 31020KT CAVOK 01/M07 Q0997
10:20
V
0 °C 10 km+ - 310° 310° 21 kt METAR ESNG 310820Z AUTO 31021KT 9999 NCD 00/M07 Q0997 REUP
09:50
V
0 °C 10 km+ - 310° 310° 21 kt METAR ESNG 310750Z 31021KT CAVOK M00/M07 Q0996
09:20
V
0 °C 10 km+ - 310° 310° 18 - 28 kt METAR ESNG 310720Z 31018G28KT 280V340 CAVOK M00/M08 Q0996
08:50
V
0 °C 10 km+ - 310° 310° 16 kt METAR ESNG 310650Z 31016KT CAVOK M00/M08 Q0995
08:20
V
-1 °C 10 km+ - 310° 310° 16 kt METAR ESNG 310620Z 31016KT CAVOK M01/M08 Q0995
07:50
V
-1 °C 10 km+ - 310° 310° 21 - 31 kt METAR ESNG 310550Z AUTO 31021G31KT 9999 FEW086/// M01/M07 Q0995 REFZUP
07:20
V
-1 °C 10 km+ - 310° 310° 19 - 31 kt METAR ESNG 310520Z AUTO 31019G31KT 9999 NCD M01/M07 Q0994
06:50
V
-1 °C 10 km+ - 310° 310° 17 - 29 kt METAR ESNG 310450Z AUTO 31017G29KT 9999 NCD M01/M07 Q0994 RESHUP
06:20
V
-1 °C 10 km+ - 310° 310° 19 - 30 kt METAR ESNG 310420Z 31019G30KT CAVOK M01/M08 Q0994
05:50
V
-1 °C 10 km+ - 300° 300° 18 kt METAR ESNG 310350Z 30018KT CAVOK M01/M07 Q0994
05:20
V
-1 °C 10 km+ - 300° 300° 15 kt METAR ESNG 310320Z 30015KT CAVOK M01/M08 Q0993
04:50
V
0 °C 10 km+ - 300° 300° 17 kt METAR ESNG 310250Z AUTO 30017KT 9999 SCT055/// ///// Q0993
04:20
V
0 °C 10 km+ - 290° 290° 15 kt METAR ESNG 310220Z AUTO 29015KT 9999 NCD ///// Q0993
03:50
V
0 °C 10 km+ - 290° 290° 15 kt METAR ESNG 310150Z AUTO 29015KT 9999 NCD ///// Q0993
03:20
V
0 °C 10 km+ - 290° 290° 14 kt METAR ESNG 310120Z AUTO 29014KT 9999 NCD ///// Q0993
02:50
V
0 °C 10 km+ - 290° 290° 16 kt METAR ESNG 310050Z AUTO 29016KT 9999 NCD ///// Q0994
02:20
V
0 °C 10 km+ - 290° 290° 17 kt METAR ESNG 310020Z AUTO 29017KT 9999 NCD ///// Q0994
01:50
V
0 °C 10 km+ - 300° 300° 17 kt METAR ESNG 302350Z AUTO 30017KT 9999 NCD ///// Q0994
01:20
V
0 °C 10 km+ - 300° 300° 16 kt METAR ESNG 302320Z AUTO 30016KT 9999 NCD ///// Q0994
00:50
V
0 °C 10 km+ - 290° 290° 13 kt METAR ESNG 302250Z AUTO 29013KT 9999 NCD ///// Q0994
00:20
V
0 °C 10 km+ - 300° 300° 15 kt METAR ESNG 302220Z AUTO 30015KT 9999 NCD ///// Q0994 RESHUP

March 30, 2023

Time Code Weather Temp. Visibility Ceiling Wind METAR/SPECI
23:50
V
0 °C 10 km+ - 300° 300° 15 kt METAR ESNG 302150Z AUTO 30015KT 9999 NCD ///// Q0994 REUP
23:20
V
0 °C 10 km+ - 300° 300° 14 kt METAR ESNG 302120Z AUTO 30014KT 9999 NCD ///// Q0995
22:50
V
0 °C 10 km+ - 290° 290° 13 kt METAR ESNG 302050Z AUTO 29013KT 9999 FEW070/// ///// Q0995
22:20
V
0 °C 10 km+ 6,200 ft 290° 290° 13 kt METAR ESNG 302020Z AUTO 29013KT 9999 BKN062/// ///// Q0995
21:50
V
-2 °C 10 km+ - 290° 290° 14 kt METAR ESNG 301950Z 29014KT 9999 SCT049 M02/M09 Q0995
21:20
V
-3 °C 10 km+ - 280° 280° 15 kt METAR ESNG 301920Z 28015KT 9999 FEW016 SCT049 M03/M08 Q0995
20:50
V
-3 °C 10 km+ 4,900 ft 280° 280° 14 kt METAR ESNG 301850Z AUTO 28014KT 9999 FEW016/// BKN049/// BKN059/// M03/M08 Q0995 RESHUP REFZUP
20:20
V
-3 °C 10 km+ - 280° 280° 17 kt METAR ESNG 301820Z 28017KT 9999 FEW034 SCT040 M03/M07 Q0996
19:50
V
-3 °C 10 km+ - 280° 280° 13 kt METAR ESNG 301750Z 28013KT 9999 SCT041 M03/M07 Q0996
19:20
V
-3 °C 10 km+ - 280° 280° 12 kt METAR ESNG 301720Z 28012KT 9999 SCT040 M03/M07 Q0996
18:50
V
-3 °C 10 km+ 3,100 ft 280° 280° 11 kt METAR ESNG 301650Z 28011KT 9999 SHSN BKN031 M03/M06 Q0997
18:20
V
-3 °C 10 km+ 4,300 ft 270° 270° 8 kt METAR ESNG 301620Z 27008KT 9999 VCSH FEW031 BKN043 M03/M05 Q0997
17:50
M
-4 °C 5 km 4,300 ft 280° 280° 9 kt METAR ESNG 301550Z 28009KT 5000 -SN VV043 M04/M05 Q0997
17:20
I
-4 °C 3.1 km 2,000 ft 270° 270° 7 kt METAR ESNG 301520Z 27007KT 3100 -SN VV020 M04/M05 Q0997
16:50
I
-4 °C 2 km 2,000 ft 270° 270° 10 kt METAR ESNG 301450Z 27010KT 2000 SN VV020 M04/M05 Q0998
16:20
V
-4 °C 10 km+ - 270° 270° 11 kt METAR ESNG 301420Z 27011KT 9999 VCSH SCT025 SCT059 M04/M07 Q0998
15:50
V
-3 °C 10 km+ - 270° 270° 10 kt METAR ESNG 301350Z 27010KT 9999 VCSH SCT024 M03/M08 Q0998
15:20
V
-4 °C 10 km+ - 270° 270° 11 kt METAR ESNG 301320Z 27011KT 9999 SCT012 M04/M08 Q0998
14:50
M
-4 °C 9 km 1,600 ft 280° 280° 10 kt METAR ESNG 301250Z 28010KT 9000 SHSN VV016 M04/M07 Q0998
13:50
V
-4 °C 8 km - 270° 270° 13 kt METAR ESNG 301150Z AUTO 27013KT 8000 SG ///030 M04/M08 Q0999
13:20
V
-4 °C 10 km+ 3,700 ft 270° 270° 13 kt METAR ESNG 301120Z AUTO 27013KT 9999 -SN FEW026/// OVC037/// M04/M09 Q0999 REFZUP
12:50
V
-4 °C 10 km+ 4,300 ft 280° 280° 15 kt METAR ESNG 301050Z AUTO 28015KT 9999 FEW027/// SCT035/// OVC043/// M04/M09 Q0999
12:20
V
-4 °C 10 km+ 4,400 ft 280° 280° 13 kt METAR ESNG 301020Z AUTO 28013KT 9999 OVC044/// M04/M09 Q1000
11:50
V
-5 °C 10 km+ 4,600 ft 280° 280° 13 kt METAR ESNG 300950Z 28013KT 9999 SG FEW028 OVC046 M05/M10 Q1000
11:20
V
-5 °C 10 km+ 4,700 ft 280° 280° 12 kt METAR ESNG 300920Z 28012KT 9999 OVC047 M05/M10 Q1000
10:50
V
-5 °C 10 km+ 4,500 ft 290° 290° 12 kt METAR ESNG 300850Z AUTO 29012KT 9999 OVC045/// M05/M10 Q1000 REFZUP
10:20
V
-6 °C 10 km+ 4,600 ft 280° 280° 12 kt METAR ESNG 300820Z AUTO 28012KT 9999 FZUP FEW024/// OVC046/// M06/M10 Q1001
09:50
M
-7 °C 10 km+ 2,400 ft 280° 280° 12 kt METAR ESNG 300750Z AUTO 28012KT 9999 BKN024/// OVC032/// M07/M10 Q1001

We and third parties follow your internet behavior on our website with cookies. If you continue, we assume you agree with our cookie policy.